Time;durP1;ratioP1;P1;durP2;ratioP2;P2;SDS_P1;SDS_P2;PMS_P1;PMS_P2;Temp;Humidity;BMP_temperature;BMP_pressure;BME280_temperature;BME280_humidity;BME280_pressure;Samples;Min_cycle;Max_cycle;Signal;HPM_P1;HPM_P2
2021/03/31 00:00:21;;;;;;;11.88;9.50;;;;;;;12.38;58.44;102222.91;693666;28;23430;-58
2021/03/31 00:00:43;;;;;;;13.68;9.85;;;;;;;12.37;58.27;102217.66;687448;28;135998;-57
2021/03/31 00:01:04;;;;;;;14.52;10.55;;;;;;;12.34;58.83;102221.50;693260;28;21525;-57
2021/03/31 00:01:25;;;;;;;14.60;11.23;;;;;;;12.34;58.86;102218.78;693279;28;22455;-57
2021/03/31 00:01:46;;;;;;;14.48;10.70;;;;;;;12.33;58.52;102219.78;692980;28;22413;-57
2021/03/31 00:02:08;;;;;;;12.57;9.90;;;;;;;12.34;58.48;102218.78;692807;28;46572;-56
2021/03/31 00:02:29;;;;;;;13.80;10.15;;;;;;;12.34;58.89;102221.50;693964;28;22418;-56
2021/03/31 00:02:52;;;;;;;15.35;10.35;;;;;;;12.33;58.64;102216.25;693416;28;21496;-58
2021/03/31 00:03:14;;;;;;;12.73;10.05;;;;;;;12.33;58.78;102208.94;691699;28;67601;-56
2021/03/31 00:03:35;;;;;;;15.15;10.75;;;;;;;12.33;58.47;102218.94;693240;28;43101;-58
2021/03/31 00:03:57;;;;;;;14.88;10.85;;;;;;;12.32;58.38;102215.41;694433;28;35649;-57
2021/03/31 00:04:18;;;;;;;14.43;11.00;;;;;;;12.30;58.65;102213.84;695022;28;23517;-58
2021/03/31 00:04:39;;;;;;;13.48;10.50;;;;;;;12.30;58.61;102206.53;694008;28;22433;-58
2021/03/31 00:05:00;;;;;;;13.57;10.52;;;;;;;12.29;58.37;102209.41;694942;28;22427;-57
2021/03/31 00:05:22;;;;;;;13.60;10.43;;;;;;;12.26;58.87;102216.84;693528;28;46444;-57
2021/03/31 00:05:43;;;;;;;13.60;9.35;;;;;;;12.25;58.37;102215.13;692698;28;22357;-58
2021/03/31 00:06:04;;;;;;;14.70;9.70;;;;;;;12.24;58.49;102210.72;693280;28;23428;-58
2021/03/31 00:06:26;;;;;;;14.55;10.07;;;;;;;12.28;58.40;102216.69;693486;28;23434;-57
2021/03/31 00:06:48;;;;;;;15.63;10.35;;;;;;;12.28;58.59;102218.56;694340;28;1293;-56
2021/03/31 00:07:10;;;;;;;14.05;10.15;;;;;;;12.26;58.56;102208.72;693491;28;1705;-56
2021/03/31 00:07:31;;;;;;;13.82;10.07;;;;;;;12.27;58.49;102214.97;693847;28;880;-57
2021/03/31 00:07:54;;;;;;;14.30;10.32;;;;;;;12.27;58.57;102209.56;692559;28;1431;-58
2021/03/31 00:08:15;;;;;;;14.02;9.90;;;;;;;12.30;58.63;102213.84;692331;28;46296;-57
2021/03/31 00:08:36;;;;;;;14.50;9.63;;;;;;;12.30;58.17;102211.97;693339;28;1618;-56
2021/03/31 00:08:57;;;;;;;12.68;9.52;;;;;;;12.30;58.45;102211.13;693137;28;22497;-57
2021/03/31 00:09:18;;;;;;;12.93;8.90;;;;;;;12.32;58.23;102217.22;692750;28;23277;-57
2021/03/31 00:09:40;;;;;;;12.90;9.40;;;;;;;12.32;57.96;102212.69;691483;28;45061;-57
2021/03/31 00:10:01;;;;;;;12.32;9.68;;;;;;;12.31;58.00;102216.38;692933;28;22476;-54
2021/03/31 00:10:25;;;;;;;12.10;9.10;;;;;;;12.31;58.19;102212.84;691351;28;23538;-56
2021/03/31 00:10:48;;;;;;;14.90;10.00;;;;;;;12.30;58.01;102209.25;690520;28;88489;-58
2021/03/31 00:11:11;;;;;;;12.80;9.52;;;;;;;12.28;57.80;102211.28;691263;28;69776;-56
2021/03/31 00:11:32;;;;;;;15.65;10.40;;;;;;;12.31;58.08;102210.13;691365;28;67537;-55
2021/03/31 00:11:53;;;;;;;19.83;11.70;;;;;;;12.32;58.01;102209.09;692537;28;23502;-58
2021/03/31 00:12:14;;;;;;;16.00;11.18;;;;;;;12.34;58.21;102210.66;693236;28;23467;-56
2021/03/31 00:12:35;;;;;;;16.70;11.15;;;;;;;12.34;58.05;102210.66;693409;28;22634;-58
2021/03/31 00:12:57;;;;;;;15.45;10.52;;;;;;;12.35;58.08;102206.09;693817;28;22388;-55
2021/03/31 00:13:18;;;;;;;16.13;10.30;;;;;;;12.35;58.03;102206.09;693409;28;27560;-57
2021/03/31 00:13:39;;;;;;;15.73;10.95;;;;;;;12.36;57.61;102208.66;692603;28;23556;-56
2021/03/31 00:14:01;;;;;;;13.27;10.48;;;;;;;12.35;58.00;102206.97;693120;28;23522;-57
2021/03/31 00:14:22;;;;;;;13.73;10.85;;;;;;;12.34;58.39;102199.81;692770;28;22457;-57
2021/03/31 00:14:43;;;;;;;14.88;11.02;;;;;;;12.33;58.54;102206.25;692774;28;40641;-58
2021/03/31 00:15:05;;;;;;;15.85;11.18;;;;;;;12.33;58.28;102206.25;693673;28;14875;-58
2021/03/31 00:15:26;;;;;;;17.27;11.65;;;;;;;12.34;58.52;102204.41;692578;28;47289;-56
2021/03/31 00:15:48;;;;;;;14.27;11.35;;;;;;;12.32;58.71;102201.84;693387;28;21246;-58
2021/03/31 00:16:09;;;;;;;14.07;10.93;;;;;;;12.33;58.62;102203.53;692936;28;46328;-57
2021/03/31 00:16:30;;;;;;;14.05;11.00;;;;;;;12.33;58.91;102205.41;693622;28;23636;-55
2021/03/31 00:16:52;;;;;;;15.13;11.40;;;;;;;12.33;58.54;102206.25;693241;28;23169;-58
2021/03/31 00:17:14;;;;;;;14.57;11.70;;;;;;;12.34;59.05;102202.53;693181;28;23478;-56
2021/03/31 00:17:35;;;;;;;14.57;11.10;;;;;;;12.35;58.67;102206.09;691915;28;67911;-56
2021/03/31 00:17:56;;;;;;;16.98;11.50;;;;;;;12.37;59.00;102201.38;693569;28;22482;-57
2021/03/31 00:18:18;;;;;;;16.60;12.02;;;;;;;12.37;58.78;102202.22;693977;28;20623;-57
2021/03/31 00:18:39;;;;;;;16.83;11.73;;;;;;;12.37;59.16;102207.66;692154;28;43741;-58
2021/03/31 00:19:00;;;;;;;14.73;11.18;;;;;;;12.38;58.78;102203.06;693798;28;20851;-57
2021/03/31 00:19:21;;;;;;;15.18;11.45;;;;;;;12.39;58.62;102199.38;693409;28;23386;-58
2021/03/31 00:19:42;;;;;;;15.73;11.30;;;;;;;12.40;58.65;102192.97;693810;28;22426;-57
2021/03/31 00:20:05;;;;;;;15.27;11.18;;;;;;;12.41;58.43;102197.34;693776;28;23455;-58
2021/03/31 00:20:27;;;;;;;14.05;11.07;;;;;;;12.42;58.87;102201.78;691870;28;68088;-56
2021/03/31 00:20:48;;;;;;;13.90;10.90;;;;;;;12.44;58.71;102199.75;693795;28;21569;-57
2021/03/31 00:21:09;;;;;;;17.67;11.73;;;;;;;12.44;58.46;102195.22;693778;28;24220;-58
2021/03/31 00:21:32;;;;;;;16.85;11.73;;;;;;;12.45;58.36;102196.03;694046;28;906;-57
2021/03/31 00:21:53;;;;;;;15.45;11.43;;;;;;;12.38;58.56;102194.94;692952;28;23494;-57
2021/03/31 00:22:14;;;;;;;14.45;11.15;;;;;;;12.34;58.92;102197.13;693642;28;17305;-57
2021/03/31 00:22:35;;;;;;;15.23;11.27;;;;;;;12.35;59.19;102192.53;693911;28;17061;-58
2021/03/31 00:22:56;;;;;;;15.50;11.45;;;;;;;12.35;58.75;102195.25;693919;28;23529;-57
2021/03/31 00:23:21;;;;;;;14.68;10.88;;;;;;;12.36;59.25;102199.69;692964;28;46401;-57
2021/03/31 00:23:42;;;;;;;14.60;11.10;;;;;;;12.31;58.98;102192.00;690695;28;92284;-57
2021/03/31 00:24:03;;;;;;;13.77;11.48;;;;;;;12.29;59.19;102188.59;693813;28;23454;-56
2021/03/31 00:24:24;;;;;;;15.73;11.10;;;;;;;12.30;58.74;102197.56;693491;28;46244;-56
2021/03/31 00:24:45;;;;;;;14.57;11.02;;;;;;;12.30;58.99;102195.72;694284;28;22629;-57
2021/03/31 00:25:07;;;;;;;12.88;10.25;;;;;;;12.30;58.48;102192.16;694564;28;1400;-58
2021/03/31 00:25:29;;;;;;;14.00;9.93;;;;;;;12.31;58.80;102185.75;692922;28;42393;-58
2021/03/31 00:25:50;;;;;;;13.68;10.23;;;;;;;12.26;58.06;102192.47;692591;28;45247;-58
2021/03/31 00:26:12;;;;;;;12.68;10.05;;;;;;;12.25;58.35;102193.47;694081;28;21553;-57
2021/03/31 00:26:33;;;;;;;11.38;9.63;;;;;;;12.24;58.19;102190.91;693392;28;46400;-58
2021/03/31 00:26:55;;;;;;;13.25;10.20;;;;;;;12.23;58.33;102191.91;693672;28;23408;-56
2021/03/31 00:27:16;;;;;;;13.95;10.57;;;;;;;12.23;58.07;102190.06;693906;28;22432;-56
2021/03/31 00:27:37;;;;;;;14.00;9.98;;;;;;;12.22;58.01;102191.06;693801;28;23541;-57
2021/03/31 00:27:58;;;;;;;11.60;9.50;;;;;;;12.22;58.24;102185.63;693778;28;22371;-58
2021/03/31 00:28:20;;;;;;;13.63;9.93;;;;;;;12.21;58.30;102183.94;693797;28;23500;-58
2021/03/31 00:28:42;;;;;;;14.32;10.15;;;;;;;12.20;58.11;102193.06;693313;28;21808;-57
2021/03/31 00:29:03;;;;;;;13.45;10.20;;;;;;;12.18;58.10;102184.25;693062;28;46377;-57
2021/03/31 00:29:24;;;;;;;12.57;9.85;;;;;;;12.17;58.52;102193.38;693346;28;23434;-56
2021/03/31 00:29:48;;;;;;;12.50;10.10;;;;;;;12.15;58.31;102184.56;693546;28;45085;-53
2021/03/31 00:30:12;;;;;;;13.27;9.52;;;;;;;12.12;58.28;102192.16;691483;28;84113;-54
2021/03/31 00:30:34;;;;;;;13.10;9.80;;;;;;;12.10;58.43;102184.16;691622;28;90867;-56
2021/03/31 00:30:55;;;;;;;13.40;9.98;;;;;;;12.07;58.37;102182.59;692943;28;42721;-56
2021/03/31 00:31:16;;;;;;;14.23;10.02;;;;;;;12.07;58.80;102188.03;694078;28;14820;-56
2021/03/31 00:31:37;;;;;;;13.48;10.20;;;;;;;12.06;58.76;102189.00;692867;28;47415;-58
2021/03/31 00:31:59;;;;;;;12.20;9.98;;;;;;;12.05;58.66;102189.16;693393;28;22438;-56
2021/03/31 00:32:20;;;;;;;11.82;9.80;;;;;;;12.02;58.99;102184.94;694035;28;1349;-56
2021/03/31 00:32:44;;;;;;;13.05;10.13;;;;;;;12.00;59.23;102180.66;693390;28;38453;-58
2021/03/31 00:33:07;;;;;;;13.35;10.50;;;;;;;11.98;59.30;102183.50;694795;28;897;-56
2021/03/31 00:33:28;;;;;;;14.93;10.93;;;;;;;11.96;59.18;102180.13;693784;28;14377;-58
2021/03/31 00:33:49;;;;;;;15.85;11.18;;;;;;;11.93;59.21;102185.81;693378;28;23269;-58
2021/03/31 00:34:10;;;;;;;16.23;10.98;;;;;;;11.93;59.37;102184.94;692716;28;46379;-58
2021/03/31 00:34:31;;;;;;;14.27;10.25;;;;;;;11.93;59.51;102190.38;693862;28;17314;-56
2021/03/31 00:34:52;;;;;;;13.15;10.35;;;;;;;11.92;59.33;102175.13;694026;28;17193;-58
2021/03/31 00:35:14;;;;;;;14.70;10.65;;;;;;;11.90;59.35;102176.09;693992;28;6565;-56
2021/03/31 00:35:36;;;;;;;15.80;10.63;;;;;;;11.90;59.60;102186.09;693616;28;23474;-58
2021/03/31 00:35:57;;;;;;;15.25;10.50;;;;;;;11.90;59.59;102184.22;693259;28;46339;-56
2021/03/31 00:36:18;;;;;;;14.43;10.48;;;;;;;11.90;59.59;102188.81;693937;28;27010;-56
2021/03/31 00:36:40;;;;;;;14.25;9.88;;;;;;;11.90;59.47;102184.22;694216;28;21510;-57
2021/03/31 00:37:01;;;;;;;14.23;9.65;;;;;;;11.90;59.27;102186.94;693170;28;19834;-58
2021/03/31 00:37:22;;;;;;;15.73;10.25;;;;;;;11.90;59.05;102186.09;693824;28;11752;-58
2021/03/31 00:37:43;;;;;;;14.70;9.88;;;;;;;11.90;58.96;102184.22;694129;28;11025;-58
2021/03/31 00:38:06;;;;;;;14.52;9.40;;;;;;;11.90;59.18;102177.97;693729;28;23490;-56
2021/03/31 00:38:27;;;;;;;14.27;9.82;;;;;;;11.88;58.93;102186.25;692104;28;68498;-59
2021/03/31 00:38:48;;;;;;;14.77;9.95;;;;;;;11.85;58.81;102183.84;694303;28;18904;-57
2021/03/31 00:39:09;;;;;;;12.75;9.85;;;;;;;11.85;59.05;102181.13;693894;28;22503;-56
2021/03/31 00:39:30;;;;;;;12.52;9.75;;;;;;;11.84;58.71;102189.41;693231;28;23419;-58
2021/03/31 00:39:51;;;;;;;12.57;9.80;;;;;;;11.82;58.94;102181.44;694543;28;17080;-57
2021/03/31 00:40:15;;;;;;;14.50;9.65;;;;;;;11.80;59.21;102185.28;693006;28;45064;-57
2021/03/31 00:40:38;;;;;;;15.02;10.20;;;;;;;11.79;59.39;102183.59;692329;28;69239;-58
2021/03/31 00:40:59;;;;;;;14.35;10.35;;;;;;;11.76;59.48;102187.44;692156;28;62129;-57
2021/03/31 00:41:21;;;;;;;14.05;10.32;;;;;;;11.75;59.55;102180.31;695134;28;842;-56
2021/03/31 00:41:42;;;;;;;15.35;10.75;;;;;;;11.73;59.52;102179.63;693907;28;32532;-58
2021/03/31 00:42:04;;;;;;;14.55;10.75;;;;;;;11.71;59.76;102181.63;693724;28;23535;-56
2021/03/31 00:42:25;;;;;;;13.48;10.40;;;;;;;11.72;59.61;102180.59;692680;28;46390;-56
2021/03/31 00:42:47;;;;;;;13.15;10.32;;;;;;;11.71;59.54;102181.63;693625;28;22412;-54
2021/03/31 00:43:11;;;;;;;14.57;10.27;;;;;;;11.71;59.94;102190.59;694128;28;13651;-58
2021/03/31 00:43:33;;;;;;;15.23;10.65;;;;;;;11.70;59.86;102178.06;692843;28;45108;-57
2021/03/31 00:43:54;;;;;;;14.43;10.48;;;;;;;11.70;59.49;102188.03;692973;28;41988;-55
2021/03/31 00:44:19;;;;;;;14.88;10.77;;;;;;;11.69;59.84;102186.31;694072;28;21525;-58
2021/03/31 00:44:40;;;;;;;16.83;10.98;;;;;;;11.66;59.90;102176.66;690721;28;99173;-56
2021/03/31 00:45:02;;;;;;;14.10;10.07;;;;;;;11.67;59.70;102183.75;694491;28;937;-57
2021/03/31 00:45:23;;;;;;;15.05;10.13;;;;;;;11.69;59.76;102186.31;692924;28;42449;-58
2021/03/31 00:45:44;;;;;;;14.68;10.13;;;;;;;11.70;59.95;102179.91;693784;28;23348;-58
2021/03/31 00:46:05;;;;;;;15.45;10.60;;;;;;;11.71;60.00;102184.34;693193;28;21648;-58
2021/03/31 00:46:27;;;;;;;15.50;10.43;;;;;;;11.71;59.90;102178.94;693866;28;22407;-58
2021/03/31 00:46:48;;;;;;;13.60;10.35;;;;;;;11.71;59.99;102178.94;691935;28;44343;-58
2021/03/31 00:47:09;;;;;;;14.13;10.93;;;;;;;11.72;59.94;102177.91;694239;28;23416;-58
2021/03/31 00:47:31;;;;;;;15.15;10.60;;;;;;;11.70;59.86;102179.91;694270;28;1033;-58
2021/03/31 00:47:52;;;;;;;14.52;10.18;;;;;;;11.69;59.43;102176.38;694184;28;12936;-55
2021/03/31 00:48:15;;;;;;;12.82;9.73;;;;;;;11.68;59.43;102184.63;694576;28;997;-56
2021/03/31 00:48:37;;;;;;;13.30;10.32;;;;;;;11.65;59.39;102188.47;692240;28;52195;-57
2021/03/31 00:48:58;;;;;;;12.65;9.75;;;;;;;11.64;59.47;102186.75;693038;28;27139;-55
2021/03/31 00:49:19;;;;;;;14.48;10.10;;;;;;;11.63;59.34;102184.22;692716;28;22412;-56
2021/03/31 00:49:40;;;;;;;12.68;9.88;;;;;;;11.63;59.28;102189.63;690716;28;23490;-57
2021/03/31 00:50:03;;;;;;;13.20;10.05;;;;;;;11.63;59.51;102187.78;688403;28;23570;-56
2021/03/31 00:50:24;;;;;;;12.80;9.88;;;;;;;11.63;59.17;102192.31;687399;28;47156;-57
2021/03/31 00:50:46;;;;;;;13.27;9.82;;;;;;;11.60;59.42;102188.09;687442;28;46302;-58
2021/03/31 00:51:08;;;;;;;14.35;9.90;;;;;;;11.60;59.23;102185.38;687619;28;46300;-56
2021/03/31 00:51:29;;;;;;;13.65;9.90;;;;;;;11.61;59.01;102184.34;691621;28;22414;-57
2021/03/31 00:51:50;;;;;;;14.25;9.90;;;;;;;11.61;59.52;102187.06;692572;28;23609;-56
2021/03/31 00:52:11;;;;;;;14.98;10.30;;;;;;;11.62;59.54;102187.94;693025;28;45239;-58
2021/03/31 00:52:32;;;;;;;14.15;10.18;;;;;;;11.60;59.27;102184.50;693322;28;23422;-58
2021/03/31 00:52:54;;;;;;;13.18;10.05;;;;;;;11.60;59.62;102182.66;692757;28;22365;-57
2021/03/31 00:53:18;;;;;;;12.85;9.90;;;;;;;11.58;59.44;102184.66;692629;28;46273;-55
2021/03/31 00:53:41;;;;;;;13.10;9.65;;;;;;;11.58;59.58;102179.25;692270;28;69502;-57
2021/03/31 00:54:02;;;;;;;14.50;10.05;;;;;;;11.58;59.87;102181.94;690759;28;88309;-57
2021/03/31 00:54:24;;;;;;;14.50;9.45;;;;;;;11.58;59.51;102181.94;694148;28;21430;-56
2021/03/31 00:54:45;;;;;;;12.50;9.52;;;;;;;11.59;59.53;102180.94;693573;28;22377;-57
2021/03/31 00:55:07;;;;;;;12.60;9.60;;;;;;;11.61;59.61;102187.06;692751;28;46310;-58
2021/03/31 00:55:29;;;;;;;11.98;9.35;;;;;;;11.64;59.71;102185.91;692143;28;46271;-55
2021/03/31 00:55:51;;;;;;;12.02;9.48;;;;;;;11.64;59.46;102185.91;691810;28;47134;-56
2021/03/31 00:56:12;;;;;;;12.73;9.50;;;;;;;11.63;59.34;102176.97;693450;28;23426;-55
2021/03/31 00:56:34;;;;;;;13.45;9.70;;;;;;;11.64;58.85;102172.38;694711;28;4782;-55
2021/03/31 00:56:55;;;;;;;14.55;10.05;;;;;;;11.64;58.72;102186.75;693149;28;42246;-56
2021/03/31 00:57:17;;;;;;;12.68;9.90;;;;;;;11.63;58.84;102176.97;694087;28;1109;-56
2021/03/31 00:57:39;;;;;;;12.38;9.20;;;;;;;11.63;59.00;102181.50;693416;28;23036;-57
2021/03/31 00:58:00;;;;;;;12.48;9.25;;;;;;;11.62;58.53;102185.22;694327;28;19141;-57
2021/03/31 00:58:21;;;;;;;15.73;9.75;;;;;;;11.61;58.88;102184.34;694715;28;8275;-56
2021/03/31 00:58:43;;;;;;;13.63;9.80;;;;;;;11.62;58.78;102183.38;694009;28;22409;-57
2021/03/31 00:59:04;;;;;;;12.75;9.65;;;;;;;11.62;58.77;102183.38;693584;28;17264;-54
2021/03/31 00:59:26;;;;;;;12.75;9.73;;;;;;;11.62;58.80;102180.66;693238;28;32855;-56
2021/03/31 00:59:47;;;;;;;12.18;9.55;;;;;;;11.63;58.29;102178.78;693667;28;23422;-55
2021/03/31 01:00:10;;;;;;;13.05;9.98;;;;;;;11.64;58.51;102172.38;694762;28;858;-57
2021/03/31 01:00:32;;;;;;;13.68;10.13;;;;;;;11.63;58.59;102176.09;691702;28;69429;-58
2021/03/31 01:00:53;;;;;;;15.15;9.75;;;;;;;11.63;58.55;102176.09;693768;28;23504;-57
2021/03/31 01:01:14;;;;;;;13.73;9.55;;;;;;;11.62;58.94;102177.94;693190;28;41779;-55
2021/03/31 01:01:35;;;;;;;13.95;9.55;;;;;;;11.62;58.65;102182.53;693667;28;21044;-57
2021/03/31 01:01:57;;;;;;;12.55;9.77;;;;;;;11.62;58.98;102182.53;694277;28;22419;-58
2021/03/31 01:02:18;;;;;;;13.25;10.25;;;;;;;11.62;58.58;102175.25;693954;28;21046;-57
2021/03/31 01:02:40;;;;;;;13.93;10.15;;;;;;;11.60;58.72;102179.09;693162;28;44399;-56
2021/03/31 01:03:01;;;;;;;12.90;10.25;;;;;;;11.59;59.14;102170.13;693808;28;22420;-58
2021/03/31 01:03:22;;;;;;;12.15;9.85;;;;;;;11.60;59.30;102179.09;693843;28;22392;-57
2021/03/31 01:03:43;;;;;;;12.10;9.77;;;;;;;11.59;59.07;102178.25;692565;28;44526;-57
2021/03/31 01:04:05;;;;;;;13.20;10.15;;;;;;;11.60;59.31;102173.69;693517;28;22365;-55
2021/03/31 01:04:26;;;;;;;13.25;10.02;;;;;;;11.60;58.99;102179.09;693778;28;23390;-57
2021/03/31 01:04:47;;;;;;;14.40;9.88;;;;;;;11.61;59.30;102180.81;693357;28;23769;-55
2021/03/31 01:05:11;;;;;;;13.30;10.02;;;;;;;11.61;59.04;102169.97;693032;28;46336;-58
2021/03/31 01:05:33;;;;;;;13.48;10.10;;;;;;;11.60;59.12;102179.97;690984;28;92317;-57
2021/03/31 01:05:55;;;;;;;12.82;10.57;;;;;;;11.61;59.38;102180.81;693568;28;23492;-57
2021/03/31 01:06:16;;;;;;;12.45;10.23;;;;;;;11.62;59.43;102179.81;693447;28;46462;-53
2021/03/31 01:06:37;;;;;;;12.55;9.77;;;;;;;11.60;59.52;102171.84;693131;28;21884;-56
2021/03/31 01:06:58;;;;;;;14.65;9.98;;;;;;;11.60;59.63;102174.56;694299;28;19912;-55
2021/03/31 01:07:19;;;;;;;12.05;9.73;;;;;;;11.60;59.80;102168.25;693625;28;16234;-57
2021/03/31 01:07:41;;;;;;;11.88;9.82;;;;;;;11.60;59.54;102185.38;693948;28;23493;-57
2021/03/31 01:08:03;;;;;;;12.20;10.82;;;;;;;11.60;59.52;102185.38;691180;28;46371;-58
2021/03/31 01:08:24;;;;;;;14.07;10.55;;;;;;;11.60;59.61;102179.09;691498;28;45210;-58
2021/03/31 01:08:45;;;;;;;15.45;10.30;;;;;;;11.61;59.81;102173.53;694312;28;21573;-57
2021/03/31 01:09:06;;;;;;;16.13;10.85;;;;;;;11.61;59.81;102176.25;694005;28;22404;-57
2021/03/31 01:09:28;;;;;;;13.68;10.27;;;;;;;11.61;59.27;102172.69;693521;28;22108;-57
2021/03/31 01:09:49;;;;;;;12.63;9.90;;;;;;;11.61;59.14;102184.34;689708;28;46323;-56
2021/03/31 01:10:12;;;;;;;13.73;9.93;;;;;;;11.61;58.93;102175.41;690910;28;47336;-58
2021/03/31 01:10:36;;;;;;;15.20;10.07;;;;;;;11.61;59.24;102181.66;690697;28;44444;-57
2021/03/31 01:10:58;;;;;;;12.48;9.52;;;;;;;11.61;58.93;102180.81;689044;28;93179;-57
2021/03/31 01:11:27;;;;;;;12.52;9.65;;;;;;;11.62;59.04;102180.66;692137;28;46330;-57
2021/03/31 01:11:55;;;;;;;16.17;11.02;;;;;;;11.61;59.03;102176.25;689697;28;136278;-58
2021/03/31 01:12:23;;;;;;;13.75;10.43;;;;;;;11.62;59.02;102180.66;690039;28;136326;-55
2021/03/31 01:12:53;;;;;;;15.18;10.65;;;;;;;11.64;59.45;102183.22;689999;28;138658;-56
2021/03/31 01:13:37;;;;;;;16.60;10.60;;;;;;;11.65;59.00;102171.41;688977;28;160298;-57
2021/03/31 01:14:02;;;;;;;12.82;9.85;;;;;;;11.68;59.58;102171.94;689860;28;139663;-57
2021/03/31 01:14:28;;;;;;;13.40;10.20;;;;;;;11.70;58.99;102174.50;689916;28;136446;-56
2021/03/31 01:14:56;;;;;;;15.27;10.40;;;;;;;11.70;59.10;102180.75;690654;28;115167;-57
2021/03/31 01:15:20;;;;;;;12.82;10.43;;;;;;;11.71;58.96;102177.06;689722;28;137940;-55
2021/03/31 01:15:47;;;;;;;13.20;10.23;;;;;;;11.71;59.16;102171.66;690089;28;113753;-58
2021/03/31 01:16:17;;;;;;;13.30;10.43;;;;;;;11.74;59.12;102178.63;689647;28;134412;-55
2021/03/31 01:16:41;;;;;;;12.48;10.18;;;;;;;11.74;58.79;102170.50;689272;28;138023;-58
2021/03/31 01:17:07;;;;;;;13.13;9.40;;;;;;;11.75;58.82;102172.19;690272;28;113592;-56
2021/03/31 01:17:33;;;;;;;15.25;10.52;;;;;;;11.73;58.74;102177.75;689841;28;115749;-55
2021/03/31 01:17:59;;;;;;;13.38;10.02;;;;;;;11.73;58.90;102166.94;689595;28;139064;-57
2021/03/31 01:18:25;;;;;;;13.55;9.68;;;;;;;11.73;58.94;102175.03;688124;28;159041;-56
2021/03/31 01:18:50;;;;;;;14.48;9.88;;;;;;;11.74;58.49;102173.22;689996;28;138645;-56
2021/03/31 01:19:48;;;;;;;14.45;10.27;;;;;;;11.72;58.61;102173.38;691441;28;84263;-55
2021/03/31 01:20:39;;;;;;;12.25;9.88;;;;;;;11.70;59.24;102174.50;682910;28;180297;-58
2021/03/31 01:21:42;;;;;;;15.43;10.80;;;;;;;11.66;59.05;102182.06;687080;28;138616;-55
2021/03/31 01:22:36;;;;;;;12.85;10.07;;;;;;;11.64;59.29;102180.50;686224;28;137726;-56
2021/03/31 01:23:37;;;;;;;13.15;10.07;;;;;;;11.60;59.00;102179.97;687269;28;136026;-57
2021/03/31 01:24:21;;;;;;;11.63;9.30;;;;;;;11.59;59.01;102186.38;684342;28;137445;-55
2021/03/31 01:25:05;;;;;;;13.98;9.93;;;;;;;11.56;58.87;102183.97;688065;28;109157;-57
2021/03/31 01:25:29;;;;;;;13.38;10.75;;;;;;;11.55;59.14;102193.06;686254;28;137695;-56
2021/03/31 01:25:54;;;;;;;14.13;10.65;;;;;;;11.54;58.90;102184.09;687946;28;91858;-54
2021/03/31 01:26:21;;;;;;;19.60;11.73;;;;;;;11.52;58.60;102188.81;690107;28;62052;-54
2021/03/31 01:26:45;;;;;;;17.70;11.90;;;;;;;11.52;58.94;102185.28;686779;28;138255;-55
2021/03/31 01:27:11;;;;;;;18.80;12.85;;;;;;;11.50;58.77;102182.72;689248;28;80806;-58
2021/03/31 01:27:43;;;;;;;18.30;12.40;;;;;;;11.50;58.67;102188.13;687877;28;115547;-58
2021/03/31 01:28:23;;;;;;;18.15;12.90;;;;;;;11.48;59.21;102187.41;687552;28;131584;-55
2021/03/31 01:28:55;;;;;;;20.30;14.00;;;;;;;11.44;59.23;102196.81;686202;28;137276;-57
2021/03/31 01:29:46;;;;;;;21.30;14.18;;;;;;;11.42;59.76;102192.56;686228;28;160052;-55
2021/03/31 01:30:12;;;;;;;16.27;12.40;;;;;;;11.41;59.78;102190.84;685736;28;128467;-54
2021/03/31 01:30:39;;;;;;;18.80;12.88;;;;;;;11.41;59.82;102188.13;689434;28;90190;-55
2021/03/31 01:31:05;;;;;;;19.08;13.02;;;;;;;11.41;59.93;102185.44;688320;28;136765;-56
2021/03/31 01:31:34;;;;;;;19.30;13.20;;;;;;;11.41;59.91;102191.72;688541;28;131257;-57
2021/03/31 01:32:05;;;;;;;21.33;13.55;;;;;;;11.40;59.72;102190.00;688212;28;136279;-57
2021/03/31 01:32:39;;;;;;;16.77;12.70;;;;;;;11.41;59.72;102189.00;691858;28;62614;-52
2021/03/31 01:33:16;;;;;;;17.67;12.75;;;;;;;11.40;59.90;102186.44;690978;28;108852;-53
2021/03/31 01:33:54;;;;;;;17.63;12.70;;;;;;;11.38;60.10;102178.47;688644;28;161596;-52
2021/03/31 01:34:34;;;;;;;17.45;13.00;;;;;;;11.37;59.85;102190.28;690067;28;132513;-53
2021/03/31 01:34:56;;;;;;;18.27;12.75;;;;;;;11.37;59.65;102187.59;689968;28;136943;-54
2021/03/31 01:35:18;;;;;;;17.65;11.90;;;;;;;11.38;59.58;102186.59;692004;28;46563;-57
2021/03/31 01:35:40;;;;;;;15.90;11.60;;;;;;;11.38;59.74;102186.59;691907;28;22170;-57
2021/03/31 01:36:03;;;;;;;16.83;11.88;;;;;;;11.38;59.40;102189.31;692166;28;70143;-53
2021/03/31 01:36:24;;;;;;;18.10;11.75;;;;;;;11.35;59.72;102185.03;692959;28;44570;-54
2021/03/31 01:36:46;;;;;;;16.08;11.10;;;;;;;11.35;59.51;102192.28;693050;28;44524;-53
2021/03/31 01:37:13;;;;;;;15.02;11.00;;;;;;;11.33;59.24;102184.31;692470;28;45188;-54
2021/03/31 01:37:37;;;;;;;15.73;11.05;;;;;;;11.33;59.39;102183.44;689813;28;137792;-56
2021/03/31 01:38:00;;;;;;;16.92;11.60;;;;;;;11.31;59.54;102180.91;690791;28;116017;-53
2021/03/31 01:38:23;;;;;;;17.52;11.60;;;;;;;11.32;59.82;102187.19;692323;28;69500;-55
2021/03/31 01:38:47;;;;;;;16.35;11.88;;;;;;;11.31;59.83;102183.59;692712;28;45277;-51
2021/03/31 01:39:10;;;;;;;16.15;11.88;;;;;;;11.30;59.96;102186.44;690066;28;113692;-55
2021/03/31 01:39:32;;;;;;;14.95;11.30;;;;;;;11.31;59.58;102185.47;693830;28;23255;-55
2021/03/31 01:39:55;;;;;;;17.70;11.73;;;;;;;11.28;59.65;102181.19;692095;28;67762;-54
2021/03/31 01:40:18;;;;;;;17.52;11.50;;;;;;;11.27;59.81;102184.03;691800;28;46341;-52
2021/03/31 01:40:44;;;;;;;16.30;10.77;;;;;;;11.27;59.63;102182.22;691639;28;68387;-52
2021/03/31 01:41:06;;;;;;;14.43;10.63;;;;;;;11.28;59.56;102180.34;689412;28;137644;-52
2021/03/31 01:41:28;;;;;;;11.57;10.10;;;;;;;11.26;59.79;102179.66;693093;28;46213;-55
2021/03/31 01:41:50;;;;;;;14.32;10.13;;;;;;;11.24;59.63;102187.91;694042;28;20809;-52
2021/03/31 01:42:13;;;;;;;14.82;10.32;;;;;;;11.22;59.82;102187.19;692907;28;64834;-53
2021/03/31 01:42:37;;;;;;;14.65;10.52;;;;;;;11.21;59.70;102188.19;694292;28;46008;-51
2021/03/31 01:43:01;;;;;;;17.70;10.48;;;;;;;11.19;59.95;102182.09;692702;28;92598;-54
2021/03/31 01:43:24;;;;;;;18.63;10.70;;;;;;;11.17;60.24;102184.94;692597;28;93161;-55
2021/03/31 01:43:47;;;;;;;17.50;11.18;;;;;;;11.17;60.19;102182.25;693040;28;67084;-55
2021/03/31 01:44:09;;;;;;;19.52;11.82;;;;;;;11.17;60.22;102175.94;691936;28;69344;-56
2021/03/31 01:44:30;;;;;;;16.77;11.27;;;;;;;11.18;60.21;102175.81;692906;28;46325;-54
2021/03/31 01:44:56;;;;;;;16.70;11.10;;;;;;;11.17;60.23;102182.25;693659;28;23581;-54
2021/03/31 01:45:20;;;;;;;14.52;10.48;;;;;;;11.18;60.29;102177.66;689227;28;136479;-55
2021/03/31 01:45:42;;;;;;;14.52;10.93;;;;;;;11.18;60.52;102180.38;691680;28;68422;-55
2021/03/31 01:46:03;;;;;;;12.90;10.75;;;;;;;11.17;60.22;102178.66;692851;28;44414;-54
2021/03/31 01:46:26;;;;;;;15.63;10.82;;;;;;;11.16;60.33;102179.69;694256;28;23496;-57
2021/03/31 01:46:50;;;;;;;14.23;10.77;;;;;;;11.14;60.46;102179.81;692621;28;69277;-54
2021/03/31 01:47:13;;;;;;;12.25;9.75;;;;;;;11.14;60.55;102176.25;690682;28;91963;-54
2021/03/31 01:47:37;;;;;;;12.98;9.95;;;;;;;11.14;60.57;102184.34;691518;28;67505;-54
2021/03/31 01:48:00;;;;;;;14.82;10.20;;;;;;;11.13;60.54;102178.09;691157;28;92267;-54
2021/03/31 01:48:23;;;;;;;16.60;10.35;;;;;;;11.13;60.27;102185.38;692060;28;69463;-55
2021/03/31 01:48:46;;;;;;;15.27;10.17;;;;;;;11.12;60.37;102180.97;690581;28;92443;-57
2021/03/31 01:49:07;;;;;;;11.98;9.70;;;;;;;11.11;60.02;102177.41;691122;28;69449;-56